sensor_id;sensor_type;location;lat;lon;timestamp;pressure;altitude;pressure_sealevel;temperature;humidity
75936;BME280;64614;32.062;34.834;2024-02-23T00:00:30;101496.03;;;23.50;47.80
75936;BME280;64614;32.062;34.834;2024-02-23T00:02:56;101479.09;;;23.47;47.51
75936;BME280;64614;32.062;34.834;2024-02-23T00:05:23;101487.00;;;23.49;47.95
75936;BME280;64614;32.062;34.834;2024-02-23T00:07:49;101476.19;;;23.39;47.69
75936;BME280;64614;32.062;34.834;2024-02-23T00:10:15;101475.91;;;23.40;47.91
75936;BME280;64614;32.062;34.834;2024-02-23T00:12:41;101483.31;;;23.40;47.78
75936;BME280;64614;32.062;34.834;2024-02-23T00:15:09;101490.41;;;23.41;47.61
75936;BME280;64614;32.062;34.834;2024-02-23T00:17:35;101486.88;;;23.40;47.87
75936;BME280;64614;32.062;34.834;2024-02-23T00:20:00;101462.72;;;23.23;47.76
75936;BME280;64614;32.062;34.834;2024-02-23T00:22:26;101491.16;;;23.46;47.63
75936;BME280;64614;32.062;34.834;2024-02-23T00:24:52;101480.88;;;23.38;48.04
75936;BME280;64614;32.062;34.834;2024-02-23T00:27:20;101476.81;;;23.36;47.94
75936;BME280;64614;32.062;34.834;2024-02-23T00:29:46;101473.81;;;23.32;48.10
75936;BME280;64614;32.062;34.834;2024-02-23T00:32:11;101477.81;;;23.40;47.93
75936;BME280;64614;32.062;34.834;2024-02-23T00:34:37;101475.66;;;23.37;48.06
75936;BME280;64614;32.062;34.834;2024-02-23T00:37:04;101482.28;;;23.36;47.91
75936;BME280;64614;32.062;34.834;2024-02-23T00:39:30;101497.53;;;23.42;48.02
75936;BME280;64614;32.062;34.834;2024-02-23T00:41:57;101482.28;;;23.36;48.02
75936;BME280;64614;32.062;34.834;2024-02-23T00:44:25;101459.75;;;23.20;47.88
75936;BME280;64614;32.062;34.834;2024-02-23T00:46:51;101496.69;;;23.41;47.92
75936;BME280;64614;32.062;34.834;2024-02-23T00:49:16;101508.19;;;23.43;47.83
75936;BME280;64614;32.062;34.834;2024-02-23T00:51:42;101517.25;;;23.44;47.92
75936;BME280;64614;32.062;34.834;2024-02-23T00:54:08;101495.25;;;23.30;48.16
75936;BME280;64614;32.062;34.834;2024-02-23T00:56:34;101520.28;;;23.42;47.91
75936;BME280;64614;32.062;34.834;2024-02-23T00:59:00;101509.91;;;23.39;47.97
75936;BME280;64614;32.062;34.834;2024-02-23T01:01:26;101528.00;;;23.40;48.07
75936;BME280;64614;32.062;34.834;2024-02-23T01:03:54;101508.13;;;23.29;47.91
75936;BME280;64614;32.062;34.834;2024-02-23T01:06:20;101511.09;;;23.33;48.08
75936;BME280;64614;32.062;34.834;2024-02-23T01:08:45;101510.50;;;23.36;47.98
75936;BME280;64614;32.062;34.834;2024-02-23T01:11:11;101499.09;;;23.29;48.02
75936;BME280;64614;32.062;34.834;2024-02-23T01:13:37;101505.09;;;23.31;48.23
75936;BME280;64614;32.062;34.834;2024-02-23T01:16:02;101491.41;;;23.31;48.20
75936;BME280;64614;32.062;34.834;2024-02-23T01:18:28;101494.63;;;23.33;48.25
75936;BME280;64614;32.062;34.834;2024-02-23T01:20:56;101476.94;;;23.25;48.39
75936;BME280;64614;32.062;34.834;2024-02-23T01:23:22;101499.09;;;23.29;48.19
75936;BME280;64614;32.062;34.834;2024-02-23T01:25:48;101500.94;;;23.34;48.12
75936;BME280;64614;32.062;34.834;2024-02-23T01:28:13;101478.28;;;23.28;48.24
75936;BME280;64614;32.062;34.834;2024-02-23T01:30:42;101489.47;;;23.31;48.55
75936;BME280;64614;32.062;34.834;2024-02-23T01:33:08;101472.91;;;23.17;47.97
75936;BME280;64614;32.062;34.834;2024-02-23T01:35:33;101473.69;;;23.23;48.33
75936;BME280;64614;32.062;34.834;2024-02-23T01:37:59;101496.88;;;23.31;48.33
75936;BME280;64614;32.062;34.834;2024-02-23T01:40:25;101487.38;;;23.23;48.15
75936;BME280;64614;32.062;34.834;2024-02-23T01:43:04;101504.28;;;23.30;48.29
75936;BME280;64614;32.062;34.834;2024-02-23T01:45:31;101495.31;;;23.25;48.49
75936;BME280;64614;32.062;34.834;2024-02-23T01:47:57;101512.78;;;23.29;48.26
75936;BME280;64614;32.062;34.834;2024-02-23T01:50:24;101501.97;;;23.19;48.32
75936;BME280;64614;32.062;34.834;2024-02-23T01:52:50;101517.22;;;23.25;48.27
75936;BME280;64614;32.062;34.834;2024-02-23T01:55:21;101522.44;;;23.26;48.51
75936;BME280;64614;32.062;34.834;2024-02-23T01:57:47;101536.94;;;23.27;48.24
75936;BME280;64614;32.062;34.834;2024-02-23T02:00:18;101534.78;;;23.24;48.47
75936;BME280;64614;32.062;34.834;2024-02-23T02:02:44;101527.69;;;23.23;48.55
75936;BME280;64614;32.062;34.834;2024-02-23T02:05:11;101515.78;;;23.08;48.64
75936;BME280;64614;32.062;34.834;2024-02-23T02:07:37;101516.59;;;23.09;48.39
75936;BME280;64614;32.062;34.834;2024-02-23T02:10:05;101539.44;;;23.23;48.38
75936;BME280;64614;32.062;34.834;2024-02-23T02:12:32;101529.47;;;23.08;48.54
75936;BME280;64614;32.062;34.834;2024-02-23T02:14:57;101553.47;;;23.22;48.16
75936;BME280;64614;32.062;34.834;2024-02-23T02:17:28;101544.72;;;23.14;48.45
75936;BME280;64614;32.062;34.834;2024-02-23T02:19:54;101551.56;;;23.17;48.43
75936;BME280;64614;32.062;34.834;2024-02-23T02:22:20;101548.25;;;23.20;48.29
75936;BME280;64614;32.062;34.834;2024-02-23T02:24:45;101548.00;;;23.16;48.46
75936;BME280;64614;32.062;34.834;2024-02-23T02:27:13;101543.41;;;23.12;48.23
75936;BME280;64614;32.062;34.834;2024-02-23T02:29:39;101553.22;;;23.18;48.63
75936;BME280;64614;32.062;34.834;2024-02-23T02:32:05;101548.88;;;23.12;48.42
75936;BME280;64614;32.062;34.834;2024-02-23T02:34:31;101535.53;;;23.05;48.61
75936;BME280;64614;32.062;34.834;2024-02-23T02:36:56;101552.94;;;23.20;48.37
75936;BME280;64614;32.062;34.834;2024-02-23T02:39:22;101552.38;;;23.17;48.56
75936;BME280;64614;32.062;34.834;2024-02-23T02:41:48;101548.00;;;23.16;48.21
75936;BME280;64614;32.062;34.834;2024-02-23T02:44:14;101535.13;;;23.17;48.34
75936;BME280;64614;32.062;34.834;2024-02-23T02:46:43;101523.69;;;23.10;48.65
75936;BME280;64614;32.062;34.834;2024-02-23T02:49:09;101513.88;;;23.09;48.53
75936;BME280;64614;32.062;34.834;2024-02-23T02:51:35;101520.72;;;23.06;48.50
75936;BME280;64614;32.062;34.834;2024-02-23T02:54:01;101509.84;;;23.01;48.36
75936;BME280;64614;32.062;34.834;2024-02-23T02:56:26;101500.66;;;22.92;48.45
75936;BME280;64614;32.062;34.834;2024-02-23T02:58:52;101513.00;;;23.13;48.53
75936;BME280;64614;32.062;34.834;2024-02-23T03:01:18;101509.41;;;23.13;48.45
75936;BME280;64614;32.062;34.834;2024-02-23T03:03:43;101507.50;;;23.13;48.36
75936;BME280;64614;32.062;34.834;2024-02-23T03:06:09;101506.75;;;23.08;48.60
75936;BME280;64614;32.062;34.834;2024-02-23T03:08:35;101515.78;;;23.08;48.51
75936;BME280;64614;32.062;34.834;2024-02-23T03:11:00;101521.47;;;23.12;48.51
75936;BME280;64614;32.062;34.834;2024-02-23T03:13:26;101524.00;;;23.08;48.66
75936;BME280;64614;32.062;34.834;2024-02-23T03:15:51;101523.69;;;23.10;48.26
75936;BME280;64614;32.062;34.834;2024-02-23T03:18:17;101516.00;;;23.12;48.38
75936;BME280;64614;32.062;34.834;2024-02-23T03:20:43;101496.81;;;22.93;48.53
75936;BME280;64614;32.062;34.834;2024-02-23T03:23:09;101511.53;;;22.97;48.66
75936;BME280;64614;32.062;34.834;2024-02-23T03:25:34;101517.41;;;23.09;48.34
75936;BME280;64614;32.062;34.834;2024-02-23T03:28:03;101477.63;;;22.93;48.25
75936;BME280;64614;32.062;34.834;2024-02-23T03:30:29;101503.41;;;23.11;48.65
75936;BME280;64614;32.062;34.834;2024-02-23T03:32:54;101499.66;;;23.07;49.09
75936;BME280;64614;32.062;34.834;2024-02-23T03:35:20;101496.69;;;23.03;48.53
75936;BME280;64614;32.062;34.834;2024-02-23T03:37:46;101488.69;;;23.07;48.82
75936;BME280;64614;32.062;34.834;2024-02-23T03:40:12;101502.59;;;23.10;48.53
75936;BME280;64614;32.062;34.834;2024-02-23T03:42:38;101511.41;;;23.07;48.56
75936;BME280;64614;32.062;34.834;2024-02-23T03:45:04;101506.44;;;23.09;48.59
75936;BME280;64614;32.062;34.834;2024-02-23T03:47:31;101490.09;;;23.04;48.60
75936;BME280;64614;32.062;34.834;2024-02-23T03:49:56;101497.94;;;23.11;48.88
75936;BME280;64614;32.062;34.834;2024-02-23T03:52:22;101488.38;;;23.08;48.96
75936;BME280;64614;32.062;34.834;2024-02-23T03:54:48;101491.66;;;23.10;48.88
75936;BME280;64614;32.062;34.834;2024-02-23T03:57:14;101487.13;;;23.00;48.72
75936;BME280;64614;32.062;34.834;2024-02-23T03:59:54;101497.13;;;23.10;48.89
75936;BME280;64614;32.062;34.834;2024-02-23T04:02:23;101499.34;;;23.08;48.74
75936;BME280;64614;32.062;34.834;2024-02-23T04:04:48;101487.56;;;23.08;48.72
75936;BME280;64614;32.062;34.834;2024-02-23T04:07:14;101475.78;;;23.07;48.82
75936;BME280;64614;32.062;34.834;2024-02-23T04:09:40;101473.13;;;23.02;48.66
75936;BME280;64614;32.062;34.834;2024-02-23T04:12:06;101460.91;;;22.94;48.80
75936;BME280;64614;32.062;34.834;2024-02-23T04:14:41;101445.44;;;22.84;49.06
75936;BME280;64614;32.062;34.834;2024-02-23T04:17:11;101467.44;;;22.98;48.74
75936;BME280;64614;32.062;34.834;2024-02-23T04:20:07;101447.09;;;22.80;48.87
75936;BME280;64614;32.062;34.834;2024-02-23T04:22:36;101472.81;;;23.04;48.65
75936;BME280;64614;32.062;34.834;2024-02-23T04:25:11;101497.78;;;23.02;49.04
75936;BME280;64614;32.062;34.834;2024-02-23T04:27:38;101495.63;;;22.99;48.86
75936;BME280;64614;32.062;34.834;2024-02-23T04:30:05;101504.38;;;23.01;48.97
75936;BME280;64614;32.062;34.834;2024-02-23T04:32:31;101508.78;;;22.97;49.06
75936;BME280;64614;32.062;34.834;2024-02-23T04:34:56;101524.06;;;23.03;48.85
75936;BME280;64614;32.062;34.834;2024-02-23T04:37:23;101525.47;;;23.00;48.92
75936;BME280;64614;32.062;34.834;2024-02-23T04:39:48;101531.75;;;23.01;49.18
75936;BME280;64614;32.062;34.834;2024-02-23T04:42:15;101535.03;;;23.03;48.83
75936;BME280;64614;32.062;34.834;2024-02-23T04:44:41;101522.44;;;23.02;49.07
75936;BME280;64614;32.062;34.834;2024-02-23T04:47:07;101535.03;;;23.03;49.16
75936;BME280;64614;32.062;34.834;2024-02-23T04:49:34;101519.75;;;22.97;49.11
75936;BME280;64614;32.062;34.834;2024-02-23T04:52:00;101522.44;;;23.02;49.10
75936;BME280;64614;32.062;34.834;2024-02-23T04:54:28;101502.09;;;22.84;49.09
75936;BME280;64614;32.062;34.834;2024-02-23T04:56:54;101516.03;;;22.88;49.39
75936;BME280;64614;32.062;34.834;2024-02-23T05:04:30;101526.59;;;22.99;49.20
75936;BME280;64614;32.062;34.834;2024-02-23T05:06:56;101534.19;;;23.03;49.81
75936;BME280;64614;32.062;34.834;2024-02-23T05:09:21;101530.13;;;23.00;49.66
75936;BME280;64614;32.062;34.834;2024-02-23T05:11:47;101554.13;;;23.08;49.92
75936;BME280;64614;32.062;34.834;2024-02-23T05:14:13;101561.16;;;23.20;49.87
75936;BME280;64614;32.062;34.834;2024-02-23T05:16:39;101548.59;;;23.13;49.96
75936;BME280;64614;32.062;34.834;2024-02-23T05:19:05;101562.78;;;23.21;49.68
75936;BME280;64614;32.062;34.834;2024-02-23T05:21:33;101528.16;;;23.06;49.79
75936;BME280;64614;32.062;34.834;2024-02-23T05:27:07;101550.19;;;23.20;49.94
75936;BME280;64614;32.062;34.834;2024-02-23T05:34:49;101520.81;;;23.25;49.95
75936;BME280;64614;32.062;34.834;2024-02-23T05:37:47;101511.13;;;23.09;49.45
75936;BME280;64614;32.062;34.834;2024-02-23T05:40:21;101543.34;;;23.17;49.17
75936;BME280;64614;32.062;34.834;2024-02-23T05:42:53;101566.38;;;23.16;49.38
75936;BME280;64614;32.062;34.834;2024-02-23T05:45:26;101552.44;;;23.12;48.76
75936;BME280;64614;32.062;34.834;2024-02-23T05:47:57;101525.84;;;22.94;48.79
75936;BME280;64614;32.062;34.834;2024-02-23T05:50:26;101548.19;;;23.01;48.76
75936;BME280;64614;32.062;34.834;2024-02-23T05:52:52;101529.22;;;22.85;48.60
75936;BME280;64614;32.062;34.834;2024-02-23T05:55:19;101537.38;;;22.91;48.52
75936;BME280;64614;32.062;34.834;2024-02-23T05:57:44;101517.16;;;22.87;48.91
75936;BME280;64614;32.062;34.834;2024-02-23T06:03:46;101541.00;;;23.05;48.36
75936;BME280;64614;32.062;34.834;2024-02-23T06:06:14;101510.97;;;22.76;48.54
75936;BME280;64614;32.062;34.834;2024-02-23T06:08:40;101530.84;;;22.87;48.56
75936;BME280;64614;32.062;34.834;2024-02-23T06:11:26;101520.25;;;22.80;48.52
75936;BME280;64614;32.062;34.834;2024-02-23T06:13:55;101539.66;;;22.83;48.24
75936;BME280;64614;32.062;34.834;2024-02-23T06:16:29;101526.91;;;22.74;48.26
75936;BME280;64614;32.062;34.834;2024-02-23T06:18:55;101553.78;;;22.91;48.09
75936;BME280;64614;32.062;34.834;2024-02-23T06:21:31;101506.13;;;22.67;47.93
75936;BME280;64614;32.062;34.834;2024-02-23T06:24:01;101508.13;;;22.62;48.27
75936;BME280;64614;32.062;34.834;2024-02-23T06:26:28;101569.44;;;22.90;48.13
75936;BME280;64614;32.062;34.834;2024-02-23T06:28:53;101556.94;;;22.79;47.94
75936;BME280;64614;32.062;34.834;2024-02-23T06:55:24;101589.94;;;22.93;48.18
75936;BME280;64614;32.062;34.834;2024-02-23T11:15:28;101441.50;;;23.10;49.09
75936;BME280;64614;32.062;34.834;2024-02-23T11:17:55;101461.81;;;23.09;49.07
75936;BME280;64614;32.062;34.834;2024-02-23T11:20:21;101470.91;;;23.04;49.20
75936;BME280;64614;32.062;34.834;2024-02-23T11:22:54;101452.41;;;22.96;49.11
75936;BME280;64614;32.062;34.834;2024-02-23T11:25:30;101464.25;;;23.10;49.32
75936;BME280;64614;32.062;34.834;2024-02-23T11:28:05;101474.78;;;23.22;49.19
75936;BME280;64614;32.062;34.834;2024-02-23T11:30:31;101455.91;;;23.21;48.96
75936;BME280;64614;32.062;34.834;2024-02-23T11:33:00;101453.81;;;23.12;49.02
75936;BME280;64614;32.062;34.834;2024-02-23T11:35:46;101467.53;;;23.31;49.13
75936;BME280;64614;32.062;34.834;2024-02-23T11:38:18;101455.91;;;23.21;49.16
75936;BME280;64614;32.062;34.834;2024-02-23T11:40:59;101471.69;;;23.29;48.98
75936;BME280;64614;32.062;34.834;2024-02-23T11:43:26;101469.38;;;23.36;49.14
75936;BME280;64614;32.062;34.834;2024-02-23T11:45:52;101460.06;;;23.37;48.90
75936;BME280;64614;32.062;34.834;2024-02-23T11:48:17;101422.50;;;23.19;49.43
75936;BME280;64614;32.062;34.834;2024-02-23T11:50:43;101455.38;;;23.38;49.05
75936;BME280;64614;32.062;34.834;2024-02-23T11:53:09;101410.75;;;23.18;49.35
75936;BME280;64614;32.062;34.834;2024-02-23T11:55:35;101438.13;;;23.37;49.21
75936;BME280;64614;32.062;34.834;2024-02-23T11:58:01;101437.53;;;23.40;49.01
75936;BME280;64614;32.062;34.834;2024-02-23T12:00:27;101415.78;;;23.30;49.37
75936;BME280;64614;32.062;34.834;2024-02-23T12:02:55;101450.09;;;23.41;49.20
75936;BME280;64614;32.062;34.834;2024-02-23T12:05:21;101437.97;;;23.47;48.99
75936;BME280;64614;32.062;34.834;2024-02-23T12:07:47;101448.31;;;23.51;49.11
75936;BME280;64614;32.062;34.834;2024-02-23T12:10:16;101416.50;;;23.36;48.96
75936;BME280;64614;32.062;34.834;2024-02-23T12:12:42;101419.16;;;23.41;49.05
75936;BME280;64614;32.062;34.834;2024-02-23T12:15:09;101423.44;;;23.47;49.28
75936;BME280;64614;32.062;34.834;2024-02-23T12:17:46;101414.94;;;23.49;49.19
75936;BME280;64614;32.062;34.834;2024-02-23T12:20:11;101398.34;;;23.40;48.83
75936;BME280;64614;32.062;34.834;2024-02-23T12:22:37;101423.84;;;23.54;49.08
75936;BME280;64614;32.062;34.834;2024-02-23T12:25:03;101398.38;;;23.54;49.08
75936;BME280;64614;32.062;34.834;2024-02-23T12:27:29;101390.00;;;23.31;49.27
75936;BME280;64614;32.062;34.834;2024-02-23T12:29:55;101398.03;;;23.41;49.04
75936;BME280;64614;32.062;34.834;2024-02-23T12:32:21;101396.44;;;23.40;49.04
75936;BME280;64614;32.062;34.834;2024-02-23T12:34:47;101407.41;;;23.54;49.13
75936;BME280;64614;32.062;34.834;2024-02-23T12:37:17;101372.94;;;23.34;49.03
75936;BME280;64614;32.062;34.834;2024-02-23T12:39:43;101404.38;;;23.56;48.87
75936;BME280;64614;32.062;34.834;2024-02-23T12:42:11;101377.72;;;23.42;49.14
75936;BME280;64614;32.062;34.834;2024-02-23T12:44:36;101394.53;;;23.55;48.93
75936;BME280;64614;32.062;34.834;2024-02-23T12:47:02;101384.78;;;23.49;49.03
75936;BME280;64614;32.062;34.834;2024-02-23T12:49:28;101385.88;;;23.47;49.03
75936;BME280;64614;32.062;34.834;2024-02-23T12:51:54;101402.34;;;23.47;49.05
75936;BME280;64614;32.062;34.834;2024-02-23T12:54:19;101389.22;;;23.44;49.08
75936;BME280;64614;32.062;34.834;2024-02-23T12:56:45;101397.44;;;23.44;48.86
75936;BME280;64614;32.062;34.834;2024-02-23T12:59:11;101396.91;;;23.42;49.05
75936;BME280;64614;32.062;34.834;2024-02-23T13:01:37;101400.69;;;23.46;48.90
75936;BME280;64614;32.062;34.834;2024-02-23T13:04:05;101406.41;;;23.50;48.98
75936;BME280;64614;32.062;34.834;2024-02-23T13:06:37;101402.81;;;23.50;48.91
75936;BME280;64614;32.062;34.834;2024-02-23T13:09:04;101389.13;;;23.50;49.18
75936;BME280;64614;32.062;34.834;2024-02-23T13:11:30;101378.34;;;23.39;48.86
75936;BME280;64614;32.062;34.834;2024-02-23T13:13:56;101394.59;;;23.50;49.00
75936;BME280;64614;32.062;34.834;2024-02-23T13:16:22;101383.84;;;23.39;48.98
75936;BME280;64614;32.062;34.834;2024-02-23T13:18:47;101392.47;;;23.46;48.81
75936;BME280;64614;32.062;34.834;2024-02-23T13:21:14;101397.34;;;23.50;49.03
75936;BME280;64614;32.062;34.834;2024-02-23T13:23:39;101380.09;;;23.49;48.98
75936;BME280;64614;32.062;34.834;2024-02-23T13:26:07;101355.69;;;23.34;49.00
75936;BME280;64614;32.062;34.834;2024-02-23T13:28:33;101366.59;;;23.53;48.77
75936;BME280;64614;32.062;34.834;2024-02-23T13:30:58;101353.28;;;23.46;48.70
75936;BME280;64614;32.062;34.834;2024-02-23T13:33:24;101363.44;;;23.45;48.55
75936;BME280;64614;32.062;34.834;2024-02-23T13:35:51;101368.31;;;23.49;49.12
75936;BME280;64614;32.062;34.834;2024-02-23T13:38:20;101337.47;;;23.24;48.96
75936;BME280;64614;32.062;34.834;2024-02-23T13:40:45;101382.53;;;23.51;48.64
75936;BME280;64614;32.062;34.834;2024-02-23T13:43:11;101385.25;;;23.51;48.79
75936;BME280;64614;32.062;34.834;2024-02-23T13:45:57;101383.13;;;23.47;48.61
75936;BME280;64614;32.062;34.834;2024-02-23T13:48:22;101376.25;;;23.50;48.98
75936;BME280;64614;32.062;34.834;2024-02-23T13:50:49;101370.06;;;23.58;48.64
75936;BME280;64614;32.062;34.834;2024-02-23T13:53:15;101372.00;;;23.58;48.56
75936;BME280;64614;32.062;34.834;2024-02-23T13:55:41;101385.72;;;23.58;48.26
75936;BME280;64614;32.062;34.834;2024-02-23T13:58:09;101394.75;;;23.58;48.30
75936;BME280;64614;32.062;34.834;2024-02-23T14:00:35;101398.97;;;23.51;48.33
75936;BME280;64614;32.062;34.834;2024-02-23T14:03:01;101396.53;;;23.49;48.29
75936;BME280;64614;32.062;34.834;2024-02-23T14:05:26;101393.28;;;23.47;48.53
75936;BME280;64614;32.062;34.834;2024-02-23T14:07:53;101399.06;;;23.45;48.49
75936;BME280;64614;32.062;34.834;2024-02-23T14:10:19;101379.97;;;23.40;48.56
75936;BME280;64614;32.062;34.834;2024-02-23T14:12:45;101381.50;;;23.46;48.55
75936;BME280;64614;32.062;34.834;2024-02-23T14:15:11;101371.34;;;23.47;48.65
75936;BME280;64614;32.062;34.834;2024-02-23T14:17:38;101367.81;;;23.46;48.73
75936;BME280;64614;32.062;34.834;2024-02-23T14:20:04;101382.53;;;23.51;48.34
75936;BME280;64614;32.062;34.834;2024-02-23T14:22:31;101368.91;;;23.45;48.67
75936;BME280;64614;32.062;34.834;2024-02-23T14:24:58;101369.44;;;23.47;48.76
75936;BME280;64614;32.062;34.834;2024-02-23T14:27:23;101364.38;;;23.55;48.64
75936;BME280;64614;32.062;34.834;2024-02-23T14:29:49;101355.84;;;23.56;48.60
75936;BME280;64614;32.062;34.834;2024-02-23T14:32:16;101359.91;;;23.59;48.67
75936;BME280;64614;32.062;34.834;2024-02-23T14:34:43;101365.91;;;23.61;48.75
75936;BME280;64614;32.062;34.834;2024-02-23T14:37:09;101363.16;;;23.61;48.66
75936;BME280;64614;32.062;34.834;2024-02-23T14:39:35;101359.31;;;23.62;48.59
75936;BME280;64614;32.062;34.834;2024-02-23T14:42:01;101359.81;;;23.64;48.75
75936;BME280;64614;32.062;34.834;2024-02-23T14:44:26;101360.34;;;23.66;48.86
75936;BME280;64614;32.062;34.834;2024-02-23T14:46:52;101354.41;;;23.59;48.76
75936;BME280;64614;32.062;34.834;2024-02-23T14:49:18;101355.97;;;23.65;49.01
75936;BME280;64614;32.062;34.834;2024-02-23T14:51:44;101358.59;;;23.70;48.91
75936;BME280;64614;32.062;34.834;2024-02-23T14:54:12;101349.25;;;23.71;48.79
75936;BME280;64614;32.062;34.834;2024-02-23T14:56:38;101340.25;;;23.71;48.74
75936;BME280;64614;32.062;34.834;2024-02-23T14:59:07;101334.44;;;23.72;48.80
75936;BME280;64614;32.062;34.834;2024-02-23T15:01:39;101335.44;;;23.76;48.76
75936;BME280;64614;32.062;34.834;2024-02-23T15:04:07;101340.84;;;23.82;48.76
75936;BME280;64614;32.062;34.834;2024-02-23T15:06:33;101338.91;;;23.82;48.75
75936;BME280;64614;32.062;34.834;2024-02-23T15:08:59;101323.06;;;23.79;48.64
75936;BME280;64614;32.062;34.834;2024-02-23T15:11:25;101336.38;;;23.86;48.89
75936;BME280;64614;32.062;34.834;2024-02-23T15:13:51;101340.75;;;23.87;48.76
75936;BME280;64614;32.062;34.834;2024-02-23T15:16:21;101345.13;;;23.88;48.79
75936;BME280;64614;32.062;34.834;2024-02-23T15:18:48;101324.28;;;23.87;48.70
75936;BME280;64614;32.062;34.834;2024-02-23T15:21:14;101334.13;;;23.88;48.66
75936;BME280;64614;32.062;34.834;2024-02-23T15:23:40;101324.28;;;23.87;48.74
75936;BME280;64614;32.062;34.834;2024-02-23T15:26:08;101306.81;;;23.83;48.73
75936;BME280;64614;32.062;34.834;2024-02-23T15:28:34;101323.16;;;23.88;48.51
75936;BME280;64614;32.062;34.834;2024-02-23T15:31:00;101314.22;;;23.82;48.71
75936;BME280;64614;32.062;34.834;2024-02-23T15:33:28;101327.66;;;23.84;48.56
75936;BME280;64614;32.062;34.834;2024-02-23T15:35:54;101332.50;;;23.87;48.85
75936;BME280;64614;32.062;34.834;2024-02-23T15:38:20;101332.50;;;23.87;48.79
75936;BME280;64614;32.062;34.834;2024-02-23T15:40:49;101320.53;;;23.83;48.72
75936;BME280;64614;32.062;34.834;2024-02-23T15:43:15;101327.03;;;23.87;48.63
75936;BME280;64614;32.062;34.834;2024-02-23T15:45:40;101332.50;;;23.87;48.54
75936;BME280;64614;32.062;34.834;2024-02-23T15:48:08;101324.91;;;23.84;48.62
75936;BME280;64614;32.062;34.834;2024-02-23T15:50:34;101327.13;;;23.82;48.52
75936;BME280;64614;32.062;34.834;2024-02-23T15:52:59;101321.13;;;23.79;48.45
75936;BME280;64614;32.062;34.834;2024-02-23T15:55:27;101333.13;;;23.84;49.09
75936;BME280;64614;32.062;34.834;2024-02-23T15:57:52;101330.41;;;23.84;48.57
75936;BME280;64614;32.062;34.834;2024-02-23T16:00:18;101325.81;;;23.79;48.68
75936;BME280;64614;32.062;34.834;2024-02-23T16:02:44;101316.88;;;23.73;48.68
75936;BME280;64614;32.062;34.834;2024-02-23T16:05:10;101316.69;;;23.84;48.59
75936;BME280;64614;32.062;34.834;2024-02-23T16:07:36;101308.53;;;23.78;48.45
75936;BME280;64614;32.062;34.834;2024-02-23T16:10:02;101316.16;;;23.82;48.73
75936;BME280;64614;32.062;34.834;2024-02-23T16:12:28;101316.25;;;23.76;48.55
75936;BME280;64614;32.062;34.834;2024-02-23T16:14:53;101326.94;;;23.78;48.66
75936;BME280;64614;32.062;34.834;2024-02-23T16:17:21;101317.66;;;23.74;48.50
75936;BME280;64614;32.062;34.834;2024-02-23T16:19:47;101314.41;;;23.72;48.54
75936;BME280;64614;32.062;34.834;2024-02-23T16:22:14;101326.09;;;23.77;48.78
75936;BME280;64614;32.062;34.834;2024-02-23T16:24:39;101337.06;;;23.77;48.60
75936;BME280;64614;32.062;34.834;2024-02-23T16:27:06;101318.38;;;23.66;48.60
75936;BME280;64614;32.062;34.834;2024-02-23T16:29:31;101339.41;;;23.70;48.54
75936;BME280;64614;32.062;34.834;2024-02-23T16:31:57;101332.41;;;23.64;48.52
75936;BME280;64614;32.062;34.834;2024-02-23T16:34:23;101329.25;;;23.57;48.49
75936;BME280;64614;32.062;34.834;2024-02-23T16:41:57;101353.03;;;23.61;48.63
75936;BME280;64614;32.062;34.834;2024-02-23T16:44:23;101366.75;;;23.75;48.44
75936;BME280;64614;32.062;34.834;2024-02-23T16:46:49;101348.94;;;23.73;48.42
75936;BME280;64614;32.062;34.834;2024-02-23T16:49:15;101342.47;;;23.69;48.58
75936;BME280;64614;32.062;34.834;2024-02-23T16:51:41;101321.31;;;23.55;48.53
75936;BME280;64614;32.062;34.834;2024-02-23T16:54:08;101332.78;;;23.57;48.69
75936;BME280;64614;32.062;34.834;2024-02-23T16:56:36;101337.25;;;23.53;48.60
75936;BME280;64614;32.062;34.834;2024-02-23T16:59:02;101365.41;;;23.73;48.64
75936;BME280;64614;32.062;34.834;2024-02-23T17:01:28;101348.44;;;23.57;48.53
75936;BME280;64614;32.062;34.834;2024-02-23T17:03:54;101348.34;;;23.62;48.40
75936;BME280;64614;32.062;34.834;2024-02-23T17:06:20;101363.09;;;23.66;48.37
75936;BME280;64614;32.062;34.834;2024-02-23T17:08:45;101349.13;;;23.62;48.14
75936;BME280;64614;32.062;34.834;2024-02-23T17:11:13;101349.75;;;23.59;48.67
75936;BME280;64614;32.062;34.834;2024-02-23T17:13:38;101341.31;;;23.56;48.38
75936;BME280;64614;32.062;34.834;2024-02-23T17:16:05;101348.22;;;23.53;48.39
75936;BME280;64614;32.062;34.834;2024-02-23T17:18:31;101360.31;;;23.52;48.52
75936;BME280;64614;32.062;34.834;2024-02-23T17:20:57;101381.88;;;23.73;48.54
75936;BME280;64614;32.062;34.834;2024-02-23T17:23:23;101343.53;;;23.54;48.49
75936;BME280;64614;32.062;34.834;2024-02-23T17:25:48;101354.41;;;23.59;48.48
75936;BME280;64614;32.062;34.834;2024-02-23T17:28:15;101359.41;;;23.57;48.53
75936;BME280;64614;32.062;34.834;2024-02-23T17:30:41;101353.47;;;23.50;48.41
75936;BME280;64614;32.062;34.834;2024-02-23T17:33:07;101356.66;;;23.57;48.93
75936;BME280;64614;32.062;34.834;2024-02-23T17:35:33;101350.97;;;23.53;48.64
75936;BME280;64614;32.062;34.834;2024-02-23T17:37:58;101351.47;;;23.55;48.55
75936;BME280;64614;32.062;34.834;2024-02-23T17:40:24;101369.88;;;23.69;48.52
75936;BME280;64614;32.062;34.834;2024-02-23T17:42:50;101354.41;;;23.59;48.48